sensor_id;sensor_type;location;lat;lon;timestamp;P1;durP1;ratioP1;P2;durP2;ratioP2
51828;SDS011;37881;48.024;8.774;2023-04-27T00:02:23;9.80;;;5.22;;
51828;SDS011;37881;48.024;8.774;2023-04-27T00:04:49;10.07;;;5.10;;
51828;SDS011;37881;48.024;8.774;2023-04-27T00:07:17;11.07;;;5.32;;
51828;SDS011;37881;48.024;8.774;2023-04-27T00:09:44;12.80;;;5.75;;
51828;SDS011;37881;48.024;8.774;2023-04-27T00:12:10;8.13;;;4.80;;
51828;SDS011;37881;48.024;8.774;2023-04-27T00:14:37;9.07;;;5.10;;
51828;SDS011;37881;48.024;8.774;2023-04-27T00:17:03;9.32;;;5.28;;
51828;SDS011;37881;48.024;8.774;2023-04-27T00:19:30;8.73;;;5.15;;
51828;SDS011;37881;48.024;8.774;2023-04-27T00:21:57;12.20;;;5.68;;
51828;SDS011;37881;48.024;8.774;2023-04-27T00:24:25;10.53;;;5.23;;
51828;SDS011;37881;48.024;8.774;2023-04-27T00:26:52;12.63;;;6.03;;
51828;SDS011;37881;48.024;8.774;2023-04-27T00:29:18;12.40;;;6.50;;
51828;SDS011;37881;48.024;8.774;2023-04-27T00:31:45;8.93;;;5.45;;
51828;SDS011;37881;48.024;8.774;2023-04-27T00:34:12;11.35;;;5.95;;
51828;SDS011;37881;48.024;8.774;2023-04-27T00:36:39;11.70;;;6.20;;
51828;SDS011;37881;48.024;8.774;2023-04-27T00:39:06;10.27;;;5.30;;
51828;SDS011;37881;48.024;8.774;2023-04-27T00:41:36;10.60;;;5.38;;
51828;SDS011;37881;48.024;8.774;2023-04-27T00:44:04;9.02;;;5.43;;
51828;SDS011;37881;48.024;8.774;2023-04-27T00:46:31;11.27;;;5.28;;
51828;SDS011;37881;48.024;8.774;2023-04-27T00:48:59;8.63;;;5.30;;
51828;SDS011;37881;48.024;8.774;2023-04-27T00:51:26;9.43;;;5.00;;
51828;SDS011;37881;48.024;8.774;2023-04-27T00:53:58;8.65;;;5.40;;
51828;SDS011;37881;48.024;8.774;2023-04-27T00:56:26;8.93;;;5.22;;
51828;SDS011;37881;48.024;8.774;2023-04-27T00:58:53;10.48;;;5.15;;
51828;SDS011;37881;48.024;8.774;2023-04-27T01:01:19;10.03;;;5.73;;
51828;SDS011;37881;48.024;8.774;2023-04-27T01:03:46;10.35;;;5.47;;
51828;SDS011;37881;48.024;8.774;2023-04-27T01:06:13;8.43;;;4.75;;
51828;SDS011;37881;48.024;8.774;2023-04-27T01:08:40;7.70;;;4.72;;
51828;SDS011;37881;48.024;8.774;2023-04-27T01:11:07;8.75;;;4.93;;
51828;SDS011;37881;48.024;8.774;2023-04-27T01:13:33;8.57;;;5.10;;
51828;SDS011;37881;48.024;8.774;2023-04-27T01:16:00;7.85;;;4.82;;
51828;SDS011;37881;48.024;8.774;2023-04-27T01:18:27;8.13;;;5.20;;
51828;SDS011;37881;48.024;8.774;2023-04-27T01:20:54;7.43;;;4.65;;
51828;SDS011;37881;48.024;8.774;2023-04-27T01:23:21;7.30;;;4.40;;
51828;SDS011;37881;48.024;8.774;2023-04-27T01:25:49;7.93;;;5.00;;
51828;SDS011;37881;48.024;8.774;2023-04-27T01:28:15;9.57;;;4.78;;
51828;SDS011;37881;48.024;8.774;2023-04-27T01:30:42;7.05;;;4.45;;
51828;SDS011;37881;48.024;8.774;2023-04-27T01:33:09;8.65;;;4.95;;
51828;SDS011;37881;48.024;8.774;2023-04-27T01:35:36;9.32;;;5.18;;
51828;SDS011;37881;48.024;8.774;2023-04-27T01:38:02;7.83;;;4.83;;
51828;SDS011;37881;48.024;8.774;2023-04-27T01:40:29;9.23;;;5.40;;
51828;SDS011;37881;48.024;8.774;2023-04-27T01:42:56;10.23;;;5.20;;
51828;SDS011;37881;48.024;8.774;2023-04-27T01:45:22;9.38;;;5.57;;
51828;SDS011;37881;48.024;8.774;2023-04-27T01:47:50;9.38;;;5.75;;
51828;SDS011;37881;48.024;8.774;2023-04-27T01:50:17;9.80;;;4.97;;
51828;SDS011;37881;48.024;8.774;2023-04-27T01:52:44;10.18;;;5.60;;
51828;SDS011;37881;48.024;8.774;2023-04-27T01:55:11;10.85;;;6.70;;
51828;SDS011;37881;48.024;8.774;2023-04-27T01:57:38;11.10;;;6.10;;
51828;SDS011;37881;48.024;8.774;2023-04-27T02:00:05;10.23;;;5.60;;
51828;SDS011;37881;48.024;8.774;2023-04-27T02:02:32;9.30;;;5.53;;
51828;SDS011;37881;48.024;8.774;2023-04-27T02:04:59;10.30;;;5.32;;
51828;SDS011;37881;48.024;8.774;2023-04-27T02:07:25;12.75;;;7.47;;
51828;SDS011;37881;48.024;8.774;2023-04-27T02:09:52;8.50;;;4.93;;
51828;SDS011;37881;48.024;8.774;2023-04-27T02:12:19;45.70;;;25.98;;
51828;SDS011;37881;48.024;8.774;2023-04-27T02:14:46;15.33;;;7.37;;
51828;SDS011;37881;48.024;8.774;2023-04-27T02:17:12;9.63;;;5.32;;
51828;SDS011;37881;48.024;8.774;2023-04-27T02:19:39;11.63;;;5.85;;
51828;SDS011;37881;48.024;8.774;2023-04-27T02:22:06;8.13;;;5.28;;
51828;SDS011;37881;48.024;8.774;2023-04-27T02:24:34;10.05;;;5.28;;
51828;SDS011;37881;48.024;8.774;2023-04-27T02:27:01;10.10;;;5.47;;
51828;SDS011;37881;48.024;8.774;2023-04-27T02:29:29;8.48;;;5.20;;
51828;SDS011;37881;48.024;8.774;2023-04-27T02:31:57;10.02;;;5.40;;
51828;SDS011;37881;48.024;8.774;2023-04-27T02:34:24;9.82;;;5.50;;
51828;SDS011;37881;48.024;8.774;2023-04-27T02:36:51;9.65;;;5.70;;
51828;SDS011;37881;48.024;8.774;2023-04-27T02:39:17;7.83;;;4.90;;
51828;SDS011;37881;48.024;8.774;2023-04-27T02:41:44;8.82;;;5.43;;
51828;SDS011;37881;48.024;8.774;2023-04-27T02:44:11;8.60;;;5.30;;
51828;SDS011;37881;48.024;8.774;2023-04-27T02:46:37;11.98;;;5.82;;
51828;SDS011;37881;48.024;8.774;2023-04-27T02:49:04;10.73;;;5.95;;
51828;SDS011;37881;48.024;8.774;2023-04-27T02:51:31;9.00;;;5.00;;
51828;SDS011;37881;48.024;8.774;2023-04-27T02:53:57;8.70;;;5.22;;
51828;SDS011;37881;48.024;8.774;2023-04-27T02:56:24;41.45;;;21.20;;
51828;SDS011;37881;48.024;8.774;2023-04-27T02:58:51;33.17;;;14.95;;
51828;SDS011;37881;48.024;8.774;2023-04-27T03:01:18;10.55;;;6.50;;
51828;SDS011;37881;48.024;8.774;2023-04-27T03:03:45;10.17;;;6.07;;
51828;SDS011;37881;48.024;8.774;2023-04-27T03:06:13;9.90;;;6.13;;
51828;SDS011;37881;48.024;8.774;2023-04-27T03:08:40;10.10;;;5.78;;
51828;SDS011;37881;48.024;8.774;2023-04-27T03:11:06;10.07;;;5.78;;
51828;SDS011;37881;48.024;8.774;2023-04-27T03:13:34;10.00;;;6.00;;
51828;SDS011;37881;48.024;8.774;2023-04-27T03:16:08;9.83;;;5.90;;
51828;SDS011;37881;48.024;8.774;2023-04-27T03:18:37;9.85;;;5.80;;
51828;SDS011;37881;48.024;8.774;2023-04-27T03:21:08;11.90;;;5.68;;
51828;SDS011;37881;48.024;8.774;2023-04-27T03:23:36;10.80;;;6.13;;
51828;SDS011;37881;48.024;8.774;2023-04-27T03:26:06;9.45;;;6.30;;
51828;SDS011;37881;48.024;8.774;2023-04-27T03:28:36;13.00;;;7.80;;
51828;SDS011;37881;48.024;8.774;2023-04-27T03:31:04;17.02;;;8.52;;
51828;SDS011;37881;48.024;8.774;2023-04-27T03:33:59;14.98;;;8.23;;
51828;SDS011;37881;48.024;8.774;2023-04-27T03:36:26;14.05;;;8.20;;
51828;SDS011;37881;48.024;8.774;2023-04-27T03:38:53;12.82;;;6.80;;
51828;SDS011;37881;48.024;8.774;2023-04-27T03:41:20;12.17;;;7.33;;
51828;SDS011;37881;48.024;8.774;2023-04-27T03:43:47;11.07;;;6.47;;
51828;SDS011;37881;48.024;8.774;2023-04-27T03:46:14;13.85;;;7.30;;
51828;SDS011;37881;48.024;8.774;2023-04-27T03:48:41;12.80;;;7.78;;
51828;SDS011;37881;48.024;8.774;2023-04-27T03:51:09;14.75;;;8.30;;
51828;SDS011;37881;48.024;8.774;2023-04-27T03:53:36;15.10;;;8.50;;
51828;SDS011;37881;48.024;8.774;2023-04-27T03:56:02;12.82;;;7.57;;
51828;SDS011;37881;48.024;8.774;2023-04-27T03:58:29;12.00;;;6.97;;
51828;SDS011;37881;48.024;8.774;2023-04-27T04:00:56;11.68;;;6.53;;
51828;SDS011;37881;48.024;8.774;2023-04-27T04:03:24;11.43;;;6.60;;
51828;SDS011;37881;48.024;8.774;2023-04-27T04:05:51;10.13;;;6.27;;
51828;SDS011;37881;48.024;8.774;2023-04-27T04:08:17;13.77;;;6.18;;
51828;SDS011;37881;48.024;8.774;2023-04-27T04:10:44;12.45;;;5.50;;
51828;SDS011;37881;48.024;8.774;2023-04-27T04:13:11;9.55;;;5.38;;
51828;SDS011;37881;48.024;8.774;2023-04-27T04:15:37;9.15;;;5.82;;
51828;SDS011;37881;48.024;8.774;2023-04-27T04:18:04;9.10;;;6.27;;
51828;SDS011;37881;48.024;8.774;2023-04-27T04:20:33;10.10;;;6.03;;
51828;SDS011;37881;48.024;8.774;2023-04-27T04:23:00;10.43;;;6.03;;
51828;SDS011;37881;48.024;8.774;2023-04-27T04:25:26;9.43;;;5.85;;
51828;SDS011;37881;48.024;8.774;2023-04-27T04:27:57;11.60;;;6.20;;
51828;SDS011;37881;48.024;8.774;2023-04-27T04:30:24;9.33;;;5.63;;
51828;SDS011;37881;48.024;8.774;2023-04-27T04:32:51;10.82;;;5.45;;
51828;SDS011;37881;48.024;8.774;2023-04-27T04:35:18;8.98;;;5.50;;
51828;SDS011;37881;48.024;8.774;2023-04-27T04:37:45;10.68;;;6.07;;
51828;SDS011;37881;48.024;8.774;2023-04-27T04:40:12;10.05;;;5.50;;
51828;SDS011;37881;48.024;8.774;2023-04-27T04:42:39;9.70;;;5.90;;
51828;SDS011;37881;48.024;8.774;2023-04-27T04:45:06;9.65;;;5.47;;
51828;SDS011;37881;48.024;8.774;2023-04-27T04:47:33;9.23;;;5.57;;
51828;SDS011;37881;48.024;8.774;2023-04-27T04:50:00;10.18;;;5.78;;
51828;SDS011;37881;48.024;8.774;2023-04-27T04:52:27;10.95;;;6.38;;
51828;SDS011;37881;48.024;8.774;2023-04-27T04:54:54;11.97;;;6.50;;
51828;SDS011;37881;48.024;8.774;2023-04-27T04:57:21;16.65;;;6.78;;
51828;SDS011;37881;48.024;8.774;2023-04-27T04:59:48;15.68;;;7.28;;
51828;SDS011;37881;48.024;8.774;2023-04-27T05:02:14;9.75;;;6.18;;
51828;SDS011;37881;48.024;8.774;2023-04-27T05:04:41;12.52;;;6.82;;
51828;SDS011;37881;48.024;8.774;2023-04-27T05:07:08;14.00;;;6.73;;
51828;SDS011;37881;48.024;8.774;2023-04-27T05:09:39;12.35;;;6.82;;
51828;SDS011;37881;48.024;8.774;2023-04-27T05:12:06;13.40;;;7.35;;
51828;SDS011;37881;48.024;8.774;2023-04-27T05:14:33;23.20;;;13.43;;
51828;SDS011;37881;48.024;8.774;2023-04-27T05:17:00;19.00;;;10.52;;
51828;SDS011;37881;48.024;8.774;2023-04-27T05:19:27;18.57;;;8.87;;
51828;SDS011;37881;48.024;8.774;2023-04-27T05:21:55;15.15;;;8.35;;
51828;SDS011;37881;48.024;8.774;2023-04-27T05:24:21;14.98;;;8.43;;
51828;SDS011;37881;48.024;8.774;2023-04-27T05:26:48;12.23;;;7.43;;
51828;SDS011;37881;48.024;8.774;2023-04-27T05:29:15;10.87;;;7.00;;
51828;SDS011;37881;48.024;8.774;2023-04-27T05:31:42;12.02;;;7.18;;
51828;SDS011;37881;48.024;8.774;2023-04-27T05:34:08;13.15;;;7.15;;
51828;SDS011;37881;48.024;8.774;2023-04-27T05:36:35;15.20;;;7.38;;
51828;SDS011;37881;48.024;8.774;2023-04-27T05:39:02;10.77;;;6.50;;
51828;SDS011;37881;48.024;8.774;2023-04-27T05:41:29;12.23;;;6.70;;
51828;SDS011;37881;48.024;8.774;2023-04-27T05:43:56;12.20;;;6.60;;
51828;SDS011;37881;48.024;8.774;2023-04-27T05:46:23;13.38;;;7.40;;
51828;SDS011;37881;48.024;8.774;2023-04-27T05:48:50;12.18;;;7.10;;
51828;SDS011;37881;48.024;8.774;2023-04-27T05:51:16;13.27;;;7.60;;
51828;SDS011;37881;48.024;8.774;2023-04-27T05:53:43;13.73;;;7.40;;
51828;SDS011;37881;48.024;8.774;2023-04-27T05:56:09;15.68;;;8.07;;
51828;SDS011;37881;48.024;8.774;2023-04-27T05:58:37;14.02;;;7.90;;
51828;SDS011;37881;48.024;8.774;2023-04-27T06:01:03;12.15;;;7.47;;
51828;SDS011;37881;48.024;8.774;2023-04-27T06:03:31;12.98;;;7.65;;
51828;SDS011;37881;48.024;8.774;2023-04-27T06:05:59;13.47;;;7.07;;
51828;SDS011;37881;48.024;8.774;2023-04-27T06:08:27;12.07;;;7.45;;
51828;SDS011;37881;48.024;8.774;2023-04-27T06:10:54;12.52;;;7.60;;
51828;SDS011;37881;48.024;8.774;2023-04-27T06:13:22;12.82;;;7.70;;
51828;SDS011;37881;48.024;8.774;2023-04-27T06:15:49;16.00;;;8.00;;
51828;SDS011;37881;48.024;8.774;2023-04-27T06:18:16;14.03;;;7.70;;
51828;SDS011;37881;48.024;8.774;2023-04-27T06:20:42;13.30;;;7.50;;
51828;SDS011;37881;48.024;8.774;2023-04-27T06:23:09;13.65;;;7.53;;
51828;SDS011;37881;48.024;8.774;2023-04-27T06:25:36;12.43;;;7.03;;
51828;SDS011;37881;48.024;8.774;2023-04-27T06:28:05;12.05;;;7.22;;
51828;SDS011;37881;48.024;8.774;2023-04-27T06:30:32;10.30;;;7.10;;
51828;SDS011;37881;48.024;8.774;2023-04-27T06:32:59;13.73;;;6.93;;
51828;SDS011;37881;48.024;8.774;2023-04-27T06:35:26;15.52;;;7.30;;
51828;SDS011;37881;48.024;8.774;2023-04-27T06:37:52;13.13;;;6.93;;
51828;SDS011;37881;48.024;8.774;2023-04-27T06:40:24;13.90;;;7.13;;
51828;SDS011;37881;48.024;8.774;2023-04-27T06:42:51;11.37;;;6.40;;
51828;SDS011;37881;48.024;8.774;2023-04-27T06:45:18;11.70;;;7.05;;
51828;SDS011;37881;48.024;8.774;2023-04-27T06:47:45;12.70;;;7.03;;
51828;SDS011;37881;48.024;8.774;2023-04-27T06:50:12;13.43;;;6.97;;
51828;SDS011;37881;48.024;8.774;2023-04-27T06:52:40;12.68;;;7.25;;
51828;SDS011;37881;48.024;8.774;2023-04-27T06:55:07;11.57;;;7.07;;
51828;SDS011;37881;48.024;8.774;2023-04-27T06:57:34;16.85;;;6.65;;
51828;SDS011;37881;48.024;8.774;2023-04-27T07:00:01;12.05;;;6.70;;
51828;SDS011;37881;48.024;8.774;2023-04-27T07:02:29;10.43;;;6.43;;
51828;SDS011;37881;48.024;8.774;2023-04-27T07:04:56;11.82;;;6.63;;
51828;SDS011;37881;48.024;8.774;2023-04-27T07:07:22;11.70;;;6.80;;
51828;SDS011;37881;48.024;8.774;2023-04-27T07:09:49;9.57;;;5.90;;
51828;SDS011;37881;48.024;8.774;2023-04-27T07:12:16;12.50;;;7.10;;
51828;SDS011;37881;48.024;8.774;2023-04-27T07:14:43;9.52;;;6.28;;
51828;SDS011;37881;48.024;8.774;2023-04-27T07:17:09;11.88;;;5.90;;
51828;SDS011;37881;48.024;8.774;2023-04-27T07:19:36;9.50;;;5.73;;
51828;SDS011;37881;48.024;8.774;2023-04-27T07:22:03;9.48;;;5.80;;
51828;SDS011;37881;48.024;8.774;2023-04-27T07:24:29;10.43;;;6.00;;
51828;SDS011;37881;48.024;8.774;2023-04-27T07:26:56;9.50;;;6.40;;
51828;SDS011;37881;48.024;8.774;2023-04-27T07:29:23;9.13;;;5.97;;
51828;SDS011;37881;48.024;8.774;2023-04-27T07:31:53;10.83;;;5.83;;
51828;SDS011;37881;48.024;8.774;2023-04-27T07:34:21;9.90;;;6.30;;
51828;SDS011;37881;48.024;8.774;2023-04-27T07:36:48;9.45;;;5.70;;
51828;SDS011;37881;48.024;8.774;2023-04-27T07:39:15;9.38;;;5.28;;
51828;SDS011;37881;48.024;8.774;2023-04-27T07:41:42;8.73;;;5.53;;
51828;SDS011;37881;48.024;8.774;2023-04-27T07:44:08;8.50;;;4.93;;
51828;SDS011;37881;48.024;8.774;2023-04-27T07:46:35;8.68;;;5.30;;
51828;SDS011;37881;48.024;8.774;2023-04-27T07:49:03;9.95;;;5.38;;
51828;SDS011;37881;48.024;8.774;2023-04-27T07:51:30;7.95;;;5.18;;
51828;SDS011;37881;48.024;8.774;2023-04-27T07:53:57;9.50;;;5.57;;
51828;SDS011;37881;48.024;8.774;2023-04-27T07:56:24;7.40;;;5.10;;
51828;SDS011;37881;48.024;8.774;2023-04-27T07:58:51;8.40;;;5.30;;
51828;SDS011;37881;48.024;8.774;2023-04-27T08:01:17;8.30;;;4.65;;
51828;SDS011;37881;48.024;8.774;2023-04-27T08:03:46;6.90;;;4.38;;
51828;SDS011;37881;48.024;8.774;2023-04-27T08:06:13;6.72;;;4.25;;
51828;SDS011;37881;48.024;8.774;2023-04-27T08:08:41;7.10;;;4.20;;
51828;SDS011;37881;48.024;8.774;2023-04-27T08:11:09;6.05;;;4.05;;
51828;SDS011;37881;48.024;8.774;2023-04-27T08:13:36;6.60;;;3.90;;
51828;SDS011;37881;48.024;8.774;2023-04-27T08:16:03;6.80;;;3.90;;
51828;SDS011;37881;48.024;8.774;2023-04-27T08:18:30;5.97;;;3.90;;
51828;SDS011;37881;48.024;8.774;2023-04-27T08:20:57;6.83;;;3.90;;
51828;SDS011;37881;48.024;8.774;2023-04-27T08:23:27;6.90;;;4.15;;
51828;SDS011;37881;48.024;8.774;2023-04-27T08:25:54;5.53;;;3.88;;
51828;SDS011;37881;48.024;8.774;2023-04-27T08:28:21;6.18;;;3.80;;
51828;SDS011;37881;48.024;8.774;2023-04-27T08:30:48;7.43;;;3.70;;
51828;SDS011;37881;48.024;8.774;2023-04-27T08:33:15;5.63;;;3.50;;
51828;SDS011;37881;48.024;8.774;2023-04-27T08:35:42;6.15;;;3.58;;
51828;SDS011;37881;48.024;8.774;2023-04-27T08:38:08;7.18;;;4.00;;
51828;SDS011;37881;48.024;8.774;2023-04-27T08:40:35;7.32;;;3.80;;
51828;SDS011;37881;48.024;8.774;2023-04-27T08:43:07;7.15;;;4.10;;
51828;SDS011;37881;48.024;8.774;2023-04-27T08:45:33;6.57;;;4.23;;
51828;SDS011;37881;48.024;8.774;2023-04-27T08:48:00;6.97;;;3.72;;
51828;SDS011;37881;48.024;8.774;2023-04-27T08:50:27;5.05;;;3.10;;
51828;SDS011;37881;48.024;8.774;2023-04-27T08:52:55;5.80;;;3.40;;
51828;SDS011;37881;48.024;8.774;2023-04-27T08:55:22;6.22;;;3.25;;
51828;SDS011;37881;48.024;8.774;2023-04-27T08:57:55;5.70;;;3.23;;
51828;SDS011;37881;48.024;8.774;2023-04-27T09:00:23;7.72;;;3.85;;
51828;SDS011;37881;48.024;8.774;2023-04-27T09:02:51;7.05;;;3.67;;
51828;SDS011;37881;48.024;8.774;2023-04-27T09:05:19;7.28;;;3.85;;
51828;SDS011;37881;48.024;8.774;2023-04-27T09:07:57;7.50;;;4.00;;
51828;SDS011;37881;48.024;8.774;2023-04-27T09:10:25;6.77;;;3.60;;
51828;SDS011;37881;48.024;8.774;2023-04-27T09:12:55;5.78;;;3.72;;
51828;SDS011;37881;48.024;8.774;2023-04-27T09:15:26;5.88;;;3.78;;
51828;SDS011;37881;48.024;8.774;2023-04-27T09:17:54;5.55;;;3.60;;
51828;SDS011;37881;48.024;8.774;2023-04-27T09:20:22;6.00;;;3.28;;
51828;SDS011;37881;48.024;8.774;2023-04-27T09:22:52;7.67;;;3.50;;
51828;SDS011;37881;48.024;8.774;2023-04-27T09:25:25;4.82;;;2.97;;
51828;SDS011;37881;48.024;8.774;2023-04-27T09:27:53;5.80;;;3.08;;
51828;SDS011;37881;48.024;8.774;2023-04-27T09:30:21;5.40;;;3.20;;
51828;SDS011;37881;48.024;8.774;2023-04-27T09:32:58;7.75;;;2.80;;
51828;SDS011;37881;48.024;8.774;2023-04-27T09:35:28;5.27;;;2.80;;
51828;SDS011;37881;48.024;8.774;2023-04-27T09:37:57;4.63;;;2.92;;
51828;SDS011;37881;48.024;8.774;2023-04-27T09:40:25;4.07;;;2.78;;
51828;SDS011;37881;48.024;8.774;2023-04-27T09:42:56;8.20;;;3.20;;
51828;SDS011;37881;48.024;8.774;2023-04-27T09:45:27;5.00;;;3.10;;
51828;SDS011;37881;48.024;8.774;2023-04-27T09:47:54;4.73;;;3.10;;
51828;SDS011;37881;48.024;8.774;2023-04-27T09:50:21;4.70;;;3.10;;
51828;SDS011;37881;48.024;8.774;2023-04-27T09:52:47;4.47;;;2.80;;
51828;SDS011;37881;48.024;8.774;2023-04-27T09:55:18;4.40;;;3.03;;
51828;SDS011;37881;48.024;8.774;2023-04-27T10:09:08;5.18;;;3.20;;
51828;SDS011;37881;48.024;8.774;2023-04-27T10:11:39;5.25;;;3.50;;
51828;SDS011;37881;48.024;8.774;2023-04-27T10:14:07;5.53;;;3.50;;
51828;SDS011;37881;48.024;8.774;2023-04-27T10:16:48;4.70;;;2.90;;
51828;SDS011;37881;48.024;8.774;2023-04-27T10:19:23;6.43;;;3.30;;
51828;SDS011;37881;48.024;8.774;2023-04-27T10:21:51;4.72;;;2.90;;
51828;SDS011;37881;48.024;8.774;2023-04-27T10:24:38;7.07;;;3.00;;
51828;SDS011;37881;48.024;8.774;2023-04-27T10:27:07;6.17;;;3.10;;
51828;SDS011;37881;48.024;8.774;2023-04-27T10:29:40;4.93;;;3.35;;
51828;SDS011;37881;48.024;8.774;2023-04-27T10:32:09;5.93;;;3.95;;
51828;SDS011;37881;48.024;8.774;2023-04-27T10:34:37;7.75;;;3.90;;
51828;SDS011;37881;48.024;8.774;2023-04-27T10:37:05;5.20;;;3.30;;
51828;SDS011;37881;48.024;8.774;2023-04-27T10:39:34;5.03;;;2.90;;
51828;SDS011;37881;48.024;8.774;2023-04-27T10:42:24;5.65;;;2.88;;
51828;SDS011;37881;48.024;8.774;2023-04-27T10:44:57;7.45;;;3.30;;
51828;SDS011;37881;48.024;8.774;2023-04-27T10:47:34;5.68;;;3.10;;
51828;SDS011;37881;48.024;8.774;2023-04-27T10:50:11;6.35;;;3.70;;
51828;SDS011;37881;48.024;8.774;2023-04-27T10:52:43;6.43;;;3.40;;
51828;SDS011;37881;48.024;8.774;2023-04-27T10:55:15;4.53;;;2.90;;
51828;SDS011;37881;48.024;8.774;2023-04-27T11:02:56;6.60;;;3.30;;
51828;SDS011;37881;48.024;8.774;2023-04-27T11:05:34;4.43;;;2.73;;
51828;SDS011;37881;48.024;8.774;2023-04-27T11:08:05;5.18;;;2.65;;
51828;SDS011;37881;48.024;8.774;2023-04-27T11:10:33;5.00;;;2.90;;
51828;SDS011;37881;48.024;8.774;2023-04-27T11:13:09;5.18;;;2.80;;
51828;SDS011;37881;48.024;8.774;2023-04-27T11:15:51;5.20;;;2.90;;
51828;SDS011;37881;48.024;8.774;2023-04-27T11:18:21;5.77;;;2.53;;
51828;SDS011;37881;48.024;8.774;2023-04-27T11:20:53;6.05;;;3.20;;
51828;SDS011;37881;48.024;8.774;2023-04-27T11:23:31;6.07;;;3.30;;
51828;SDS011;37881;48.024;8.774;2023-04-27T11:26:14;6.47;;;3.10;;
51828;SDS011;37881;48.024;8.774;2023-04-27T11:28:42;5.47;;;3.20;;
51828;SDS011;37881;48.024;8.774;2023-04-27T11:31:11;6.17;;;3.67;;
51828;SDS011;37881;48.024;8.774;2023-04-27T11:33:38;5.40;;;3.17;;
51828;SDS011;37881;48.024;8.774;2023-04-27T11:36:17;4.05;;;2.75;;
51828;SDS011;37881;48.024;8.774;2023-04-27T11:38:45;4.53;;;2.60;;
51828;SDS011;37881;48.024;8.774;2023-04-27T11:41:12;5.03;;;2.75;;
51828;SDS011;37881;48.024;8.774;2023-04-27T11:43:42;5.10;;;2.87;;
51828;SDS011;37881;48.024;8.774;2023-04-27T11:46:18;4.20;;;3.00;;
51828;SDS011;37881;48.024;8.774;2023-04-27T11:48:46;4.28;;;2.80;;
51828;SDS011;37881;48.024;8.774;2023-04-27T11:51:14;4.47;;;2.60;;
51828;SDS011;37881;48.024;8.774;2023-04-27T11:53:40;4.18;;;2.70;;
51828;SDS011;37881;48.024;8.774;2023-04-27T11:56:09;5.47;;;2.80;;
51828;SDS011;37881;48.024;8.774;2023-04-27T11:58:37;8.35;;;5.03;;
51828;SDS011;37881;48.024;8.774;2023-04-27T12:01:05;6.25;;;3.67;;
51828;SDS011;37881;48.024;8.774;2023-04-27T12:03:32;10.15;;;3.13;;
51828;SDS011;37881;48.024;8.774;2023-04-27T12:06:00;5.38;;;3.60;;
51828;SDS011;37881;48.024;8.774;2023-04-27T12:08:30;4.93;;;3.03;;
51828;SDS011;37881;48.024;8.774;2023-04-27T12:10:57;4.78;;;3.03;;
51828;SDS011;37881;48.024;8.774;2023-04-27T12:13:23;6.25;;;3.40;;
51828;SDS011;37881;48.024;8.774;2023-04-27T12:15:50;5.63;;;2.92;;
51828;SDS011;37881;48.024;8.774;2023-04-27T12:18:17;7.40;;;3.25;;
51828;SDS011;37881;48.024;8.774;2023-04-27T12:20:44;4.87;;;2.80;;
51828;SDS011;37881;48.024;8.774;2023-04-27T12:23:11;6.57;;;3.38;;
51828;SDS011;37881;48.024;8.774;2023-04-27T12:25:38;5.35;;;3.00;;
51828;SDS011;37881;48.024;8.774;2023-04-27T12:28:06;6.32;;;3.10;;
51828;SDS011;37881;48.024;8.774;2023-04-27T12:30:33;5.35;;;2.50;;
51828;SDS011;37881;48.024;8.774;2023-04-27T12:33:00;5.57;;;2.80;;
51828;SDS011;37881;48.024;8.774;2023-04-27T12:35:27;5.00;;;2.83;;
51828;SDS011;37881;48.024;8.774;2023-04-27T12:37:57;5.70;;;2.80;;
51828;SDS011;37881;48.024;8.774;2023-04-27T12:40:24;6.68;;;2.95;;
51828;SDS011;37881;48.024;8.774;2023-04-27T12:42:50;4.88;;;3.28;;
51828;SDS011;37881;48.024;8.774;2023-04-27T12:45:18;4.20;;;2.53;;
51828;SDS011;37881;48.024;8.774;2023-04-27T12:47:45;4.22;;;2.63;;
51828;SDS011;37881;48.024;8.774;2023-04-27T12:50:29;4.85;;;2.38;;
51828;SDS011;37881;48.024;8.774;2023-04-27T12:52:59;4.32;;;2.60;;
51828;SDS011;37881;48.024;8.774;2023-04-27T12:55:26;4.05;;;2.40;;
51828;SDS011;37881;48.024;8.774;2023-04-27T12:57:56;4.97;;;2.40;;
51828;SDS011;37881;48.024;8.774;2023-04-27T13:00:23;5.28;;;2.50;;
51828;SDS011;37881;48.024;8.774;2023-04-27T13:02:51;3.97;;;2.33;;
51828;SDS011;37881;48.024;8.774;2023-04-27T13:05:18;3.75;;;2.20;;
51828;SDS011;37881;48.024;8.774;2023-04-27T13:07:46;4.65;;;2.50;;
51828;SDS011;37881;48.024;8.774;2023-04-27T13:10:13;4.67;;;2.37;;
51828;SDS011;37881;48.024;8.774;2023-04-27T13:12:39;3.67;;;2.30;;
51828;SDS011;37881;48.024;8.774;2023-04-27T13:15:07;4.10;;;2.33;;
51828;SDS011;37881;48.024;8.774;2023-04-27T13:17:34;3.30;;;2.15;;
51828;SDS011;37881;48.024;8.774;2023-04-27T13:20:01;6.40;;;2.75;;
51828;SDS011;37881;48.024;8.774;2023-04-27T13:22:27;4.47;;;2.40;;
51828;SDS011;37881;48.024;8.774;2023-04-27T13:24:54;4.55;;;2.50;;
51828;SDS011;37881;48.024;8.774;2023-04-27T13:27:21;4.07;;;2.45;;
51828;SDS011;37881;48.024;8.774;2023-04-27T13:29:50;4.82;;;2.17;;
51828;SDS011;37881;48.024;8.774;2023-04-27T13:32:17;3.83;;;2.70;;
51828;SDS011;37881;48.024;8.774;2023-04-27T13:34:44;4.00;;;2.50;;
51828;SDS011;37881;48.024;8.774;2023-04-27T13:37:11;5.32;;;2.50;;
51828;SDS011;37881;48.024;8.774;2023-04-27T13:39:37;11.80;;;3.00;;
51828;SDS011;37881;48.024;8.774;2023-04-27T13:42:04;4.82;;;2.50;;
51828;SDS011;37881;48.024;8.774;2023-04-27T13:44:31;3.92;;;2.40;;
51828;SDS011;37881;48.024;8.774;2023-04-27T13:46:59;5.23;;;2.43;;
51828;SDS011;37881;48.024;8.774;2023-04-27T13:49:25;3.85;;;2.20;;
51828;SDS011;37881;48.024;8.774;2023-04-27T13:51:52;5.28;;;2.40;;
51828;SDS011;37881;48.024;8.774;2023-04-27T13:54:19;5.97;;;2.60;;
51828;SDS011;37881;48.024;8.774;2023-04-27T13:56:46;4.97;;;2.60;;
51828;SDS011;37881;48.024;8.774;2023-04-27T13:59:13;4.97;;;2.40;;
51828;SDS011;37881;48.024;8.774;2023-04-27T14:01:42;4.75;;;2.60;;
51828;SDS011;37881;48.024;8.774;2023-04-27T14:04:09;3.88;;;2.30;;
51828;SDS011;37881;48.024;8.774;2023-04-27T14:06:36;3.83;;;2.50;;
51828;SDS011;37881;48.024;8.774;2023-04-27T14:09:03;4.03;;;2.53;;
51828;SDS011;37881;48.024;8.774;2023-04-27T14:11:30;4.60;;;2.17;;
51828;SDS011;37881;48.024;8.774;2023-04-27T14:14:07;4.47;;;2.20;;
51828;SDS011;37881;48.024;8.774;2023-04-27T14:16:34;4.53;;;2.30;;
51828;SDS011;37881;48.024;8.774;2023-04-27T14:19:01;4.57;;;2.47;;
51828;SDS011;37881;48.024;8.774;2023-04-27T14:21:27;6.18;;;2.40;;
51828;SDS011;37881;48.024;8.774;2023-04-27T14:23:54;4.67;;;2.43;;
51828;SDS011;37881;48.024;8.774;2023-04-27T14:26:21;4.80;;;2.53;;
51828;SDS011;37881;48.024;8.774;2023-04-27T14:28:48;5.90;;;2.63;;
51828;SDS011;37881;48.024;8.774;2023-04-27T14:31:14;3.70;;;2.50;;
51828;SDS011;37881;48.024;8.774;2023-04-27T14:33:41;4.65;;;2.65;;
51828;SDS011;37881;48.024;8.774;2023-04-27T14:36:08;4.73;;;2.60;;
51828;SDS011;37881;48.024;8.774;2023-04-27T14:38:35;4.43;;;2.22;;
51828;SDS011;37881;48.024;8.774;2023-04-27T14:41:02;4.57;;;2.72;;
51828;SDS011;37881;48.024;8.774;2023-04-27T14:43:28;5.28;;;2.50;;
51828;SDS011;37881;48.024;8.774;2023-04-27T14:45:55;5.38;;;2.60;;
51828;SDS011;37881;48.024;8.774;2023-04-27T14:48:37;4.03;;;2.40;;
51828;SDS011;37881;48.024;8.774;2023-04-27T14:51:04;4.03;;;2.22;;
51828;SDS011;37881;48.024;8.774;2023-04-27T14:53:31;4.03;;;2.47;;
51828;SDS011;37881;48.024;8.774;2023-04-27T14:55:58;4.15;;;2.40;;
51828;SDS011;37881;48.024;8.774;2023-04-27T14:58:25;3.70;;;2.40;;
51828;SDS011;37881;48.024;8.774;2023-04-27T15:00:51;4.53;;;2.10;;
51828;SDS011;37881;48.024;8.774;2023-04-27T15:03:18;3.70;;;2.28;;
51828;SDS011;37881;48.024;8.774;2023-04-27T15:05:45;4.30;;;2.40;;